createdAt,value
2018-03-19T00:00:08.182Z,-1.50
2018-03-19T00:02:36.485Z,-1.60
2018-03-19T00:05:04.041Z,-1.50
2018-03-19T00:07:31.577Z,-1.60
2018-03-19T00:09:59.249Z,-1.60
2018-03-19T00:12:26.794Z,-1.60
2018-03-19T00:14:55.114Z,-1.60
2018-03-19T00:17:23.441Z,-1.50
2018-03-19T00:19:51.041Z,-1.60
2018-03-19T00:22:18.558Z,-1.60
2018-03-19T00:24:46.097Z,-1.60
2018-03-19T00:27:13.721Z,-1.60
2018-03-19T00:29:41.282Z,-1.60
2018-03-19T00:32:08.838Z,-1.60
2018-03-19T00:34:36.517Z,-1.60
2018-03-19T00:37:04.082Z,-1.60
2018-03-19T00:39:31.638Z,-1.60
2018-03-19T00:41:59.204Z,-1.60
2018-03-19T00:44:26.742Z,-1.60
2018-03-19T00:46:54.279Z,-1.60
2018-03-19T00:49:22.593Z,-1.60
2018-03-19T00:51:50.114Z,-1.60
2018-03-19T00:54:17.695Z,-1.60
2018-03-19T00:56:46.002Z,-1.60
2018-03-19T00:59:13.546Z,-1.70
2018-03-19T01:01:41.869Z,-1.70
2018-03-19T01:04:09.414Z,-1.70
2018-03-19T01:06:37.006Z,-1.70
2018-03-19T01:09:04.579Z,-1.70
2018-03-19T01:11:32.119Z,-1.70
2018-03-19T01:13:59.680Z,-1.70
2018-03-19T01:16:27.256Z,-1.70
2018-03-19T01:18:55.062Z,-1.80
2018-03-19T01:21:22.650Z,-1.80
2018-03-19T01:23:50.192Z,-1.80
2018-03-19T01:26:17.727Z,-1.80
2018-03-19T01:28:45.266Z,-1.70
2018-03-19T01:31:12.836Z,-1.70
2018-03-19T01:33:40.368Z,-1.80
2018-03-19T01:36:07.900Z,-1.80
2018-03-19T01:38:35.451Z,-1.80
2018-03-19T01:41:02.983Z,-1.80
2018-03-19T01:43:31.314Z,-1.80
2018-03-19T01:45:58.841Z,-1.80
2018-03-19T01:48:26.381Z,-1.80
2018-03-19T01:50:54.008Z,-1.80
2018-03-19T01:53:21.562Z,-1.80
2018-03-19T01:55:49.172Z,-1.80
2018-03-19T01:58:16.699Z,-1.80
2018-03-19T02:00:44.229Z,-1.80
2018-03-19T02:03:11.829Z,-1.80
2018-03-19T02:05:39.448Z,-1.80
2018-03-19T02:08:07.779Z,-1.80
2018-03-19T02:10:35.319Z,-1.80
2018-03-19T02:13:02.846Z,-1.80
2018-03-19T02:15:30.481Z,-1.80
2018-03-19T02:17:58.029Z,-1.80
2018-03-19T02:20:25.586Z,-1.80
2018-03-19T02:22:53.119Z,-1.90
2018-03-19T02:25:20.653Z,-1.90
2018-03-19T02:27:48.197Z,-1.90
2018-03-19T02:30:15.746Z,-1.80
2018-03-19T02:32:43.343Z,-1.80
2018-03-19T02:35:10.879Z,-1.80
2018-03-19T02:37:38.423Z,-1.80
2018-03-19T02:40:06.723Z,-1.80
2018-03-19T02:42:34.256Z,-1.80
2018-03-19T02:45:02.594Z,-1.80
2018-03-19T02:47:30.130Z,-1.80
2018-03-19T02:49:57.678Z,-1.80
2018-03-19T02:52:25.988Z,-1.80
2018-03-19T02:54:53.528Z,-1.90
2018-03-19T02:57:21.909Z,-1.90
2018-03-19T02:59:50.221Z,-1.90
2018-03-19T03:02:17.765Z,-1.90
2018-03-19T03:04:46.073Z,-1.90
2018-03-19T03:07:13.607Z,-1.90
2018-03-19T03:09:41.935Z,-1.90
2018-03-19T03:12:09.537Z,-2.00
2018-03-19T03:14:37.086Z,-1.90
2018-03-19T03:17:04.623Z,-2.00
2018-03-19T03:19:32.205Z,-2.00
2018-03-19T03:21:59.771Z,-2.00
2018-03-19T03:24:27.313Z,-2.00
2018-03-19T03:26:54.848Z,-2.00
2018-03-19T03:29:23.258Z,-2.00
2018-03-19T03:31:50.783Z,-2.00
2018-03-19T03:34:18.352Z,-2.10
2018-03-19T03:36:45.896Z,-2.00
2018-03-19T03:39:13.435Z,-2.00
2018-03-19T03:41:40.974Z,-2.10
2018-03-19T03:44:08.498Z,-2.10
2018-03-19T03:46:36.075Z,-2.10
2018-03-19T03:49:03.617Z,-2.10
2018-03-19T03:51:31.181Z,-2.10
2018-03-19T03:53:58.745Z,-2.20
2018-03-19T03:56:26.464Z,-2.10
2018-03-19T03:58:55.078Z,-2.10
2018-03-19T04:01:22.663Z,-2.10
2018-03-19T04:03:50.213Z,-2.10
2018-03-19T04:06:17.820Z,-2.10
2018-03-19T04:08:45.416Z,-2.20
2018-03-19T04:11:12.990Z,-2.20
2018-03-19T04:13:40.536Z,-2.20
2018-03-19T04:16:08.100Z,-2.20
2018-03-19T04:18:36.425Z,-2.10
2018-03-19T04:21:03.965Z,-2.20
2018-03-19T04:23:31.531Z,-2.20
2018-03-19T04:25:59.079Z,-2.20
2018-03-19T04:28:27.375Z,-2.20
2018-03-19T04:30:55.754Z,-2.20
2018-03-19T04:33:24.167Z,-2.20
2018-03-19T04:35:51.730Z,-2.20
2018-03-19T04:38:19.264Z,-2.20
2018-03-19T04:40:47.573Z,-2.20
2018-03-19T04:43:15.115Z,-2.20
2018-03-19T04:45:42.710Z,-2.20
2018-03-19T04:48:10.287Z,-2.20
2018-03-19T04:50:37.838Z,-2.30
2018-03-19T04:53:05.362Z,-2.20
2018-03-19T04:55:33.017Z,-2.30
2018-03-19T04:58:00.613Z,-2.30
2018-03-19T05:00:28.950Z,-2.30
2018-03-19T05:02:56.479Z,-2.30
2018-03-19T05:05:24.035Z,-2.30
2018-03-19T05:07:52.346Z,-2.30
2018-03-19T05:10:19.892Z,-2.30
2018-03-19T05:12:47.461Z,-2.30
2018-03-19T05:15:15.052Z,-2.30
2018-03-19T05:17:42.596Z,-2.30
2018-03-19T05:20:10.121Z,-2.20
2018-03-19T05:22:37.674Z,-2.30
2018-03-19T05:25:05.265Z,-2.30
2018-03-19T05:27:33.675Z,-2.30
2018-03-19T05:30:01.230Z,-2.30
2018-03-19T05:32:29.541Z,-2.30
2018-03-19T05:34:57.094Z,-2.30
2018-03-19T05:37:24.724Z,-2.30
2018-03-19T05:39:53.046Z,-2.30
2018-03-19T05:42:20.591Z,-2.30
2018-03-19T05:44:48.906Z,-2.30
2018-03-19T05:47:16.444Z,-2.30
2018-03-19T05:49:44.051Z,-2.30
2018-03-19T05:52:11.596Z,-2.30
2018-03-19T05:54:39.155Z,-2.30
2018-03-19T05:57:06.767Z,-2.30
2018-03-19T05:59:34.336Z,-2.30
2018-03-19T06:02:02.178Z,-2.30
2018-03-19T06:04:29.735Z,-2.20
2018-03-19T06:06:57.288Z,-2.20
2018-03-19T06:09:24.854Z,-2.30
2018-03-19T06:11:52.665Z,-2.20
2018-03-19T06:14:20.228Z,-2.20
2018-03-19T06:16:47.767Z,-2.20
2018-03-19T06:19:15.329Z,-2.20
2018-03-19T06:21:42.874Z,-2.20
2018-03-19T06:24:10.412Z,-2.20
2018-03-19T06:26:37.987Z,-2.20
2018-03-19T06:29:06.336Z,-2.20
2018-03-19T06:31:33.876Z,-2.10
2018-03-19T06:34:01.419Z,-2.10
2018-03-19T06:36:28.992Z,-2.10
2018-03-19T06:38:56.880Z,-2.00
2018-03-19T06:41:24.445Z,-2.00
2018-03-19T06:43:51.988Z,-2.00
2018-03-19T06:46:19.532Z,-2.00
2018-03-19T06:48:47.109Z,-2.00
2018-03-19T06:51:15.439Z,-1.90
2018-03-19T06:53:42.982Z,-1.90
2018-03-19T06:56:10.542Z,-1.90
2018-03-19T06:58:38.069Z,-1.80
2018-03-19T07:01:05.646Z,-1.80
2018-03-19T07:03:33.972Z,-1.70
2018-03-19T07:06:01.500Z,-1.70
2018-03-19T07:08:29.814Z,-1.60
2018-03-19T07:10:57.365Z,-1.70
2018-03-19T07:13:25.831Z,-1.50
2018-03-19T07:15:54.420Z,-1.40
2018-03-19T07:18:22.731Z,-1.40
2018-03-19T07:20:50.259Z,-1.40
2018-03-19T07:23:18.034Z,-1.30
2018-03-19T07:25:46.343Z,-1.10
2018-03-19T07:28:13.907Z,-1.10
2018-03-19T07:30:41.584Z,-0.90
2018-03-19T07:33:09.131Z,-0.80
2018-03-19T07:35:37.433Z,-0.60
2018-03-19T07:38:05.027Z,-0.60
2018-03-19T07:40:32.671Z,-0.60
2018-03-19T07:43:00.213Z,-0.50
2018-03-19T07:45:27.864Z,-0.50
2018-03-19T07:47:56.178Z,-0.40
2018-03-19T07:50:23.714Z,-0.40
2018-03-19T07:52:51.275Z,-0.40
2018-03-19T07:55:19.593Z,-0.30
2018-03-19T07:57:47.135Z,-0.30
2018-03-19T08:00:15.426Z,-0.10
2018-03-19T08:02:42.974Z,-0.20
2018-03-19T08:05:11.573Z,0.00
2018-03-19T08:07:39.865Z,0.20
2018-03-19T08:10:07.411Z,0.20
2018-03-19T08:12:35.821Z,0.20
2018-03-19T08:15:03.389Z,0.20
2018-03-19T08:17:30.950Z,0.30
2018-03-19T08:19:58.486Z,0.20
2018-03-19T08:22:26.031Z,0.30
2018-03-19T08:24:53.558Z,0.30
2018-03-19T08:27:21.083Z,0.30
2018-03-19T08:29:49.455Z,0.30
2018-03-19T08:32:17.294Z,0.20
2018-03-19T08:34:44.867Z,0.30
2018-03-19T08:37:12.413Z,0.30
2018-03-19T08:39:39.950Z,0.30
2018-03-19T08:42:08.289Z,0.40
2018-03-19T08:44:35.823Z,0.40
2018-03-19T08:47:03.406Z,0.40
2018-03-19T08:49:30.937Z,0.50
2018-03-19T08:51:58.471Z,0.50
2018-03-19T08:54:26.042Z,0.60
2018-03-19T08:56:53.626Z,0.70
2018-03-19T08:59:21.931Z,0.70
2018-03-19T09:01:49.474Z,0.70
2018-03-19T09:04:17.801Z,0.90
2018-03-19T09:06:45.370Z,0.90
2018-03-19T09:09:13.692Z,1.10
2018-03-19T09:11:41.235Z,1.10
2018-03-19T09:14:08.785Z,1.20
2018-03-19T09:16:36.312Z,1.30
2018-03-19T09:19:03.870Z,1.40
2018-03-19T09:21:31.399Z,1.50
2018-03-19T09:23:58.949Z,1.50
2018-03-19T09:26:26.501Z,1.40
2018-03-19T09:28:54.033Z,1.30
2018-03-19T09:31:21.591Z,1.40
2018-03-19T09:33:49.904Z,1.40
2018-03-19T09:36:17.458Z,1.40
2018-03-19T09:38:45.038Z,1.40
2018-03-19T09:41:12.568Z,1.30
2018-03-19T09:43:40.892Z,1.10
2018-03-19T09:46:08.526Z,1.10
2018-03-19T09:48:36.062Z,1.00
2018-03-19T09:51:04.109Z,0.90
2018-03-19T09:53:31.634Z,1.00
2018-03-19T09:55:59.661Z,0.90
2018-03-19T09:58:27.193Z,0.90
2018-03-19T10:00:54.722Z,0.90
2018-03-19T10:03:23.029Z,1.00
2018-03-19T10:05:50.561Z,1.00
2018-03-19T10:08:18.113Z,1.00
2018-03-19T10:10:45.641Z,1.00
2018-03-19T10:13:13.177Z,1.00
2018-03-19T10:15:41.481Z,1.10
2018-03-19T10:18:10.429Z,1.10
2018-03-19T10:20:37.978Z,1.10
2018-03-19T10:23:05.512Z,1.10
2018-03-19T10:25:33.054Z,1.10
2018-03-19T10:28:06.357Z,1.00
2018-03-19T10:30:34.142Z,1.10
2018-03-19T10:33:01.692Z,1.10
2018-03-19T10:35:29.227Z,1.10
2018-03-19T10:37:56.764Z,1.20
2018-03-19T10:40:24.338Z,1.20
2018-03-19T10:42:51.880Z,1.20
2018-03-19T10:45:19.448Z,1.30
2018-03-19T10:47:47.153Z,1.30
2018-03-19T10:50:14.700Z,1.30
2018-03-19T10:52:42.423Z,1.40
2018-03-19T10:55:10.747Z,1.40
2018-03-19T10:57:38.294Z,1.40
2018-03-19T11:00:05.831Z,1.50
2018-03-19T11:02:48.991Z,1.60
2018-03-19T11:05:22.170Z,1.60
2018-03-19T11:07:55.259Z,1.60
2018-03-19T11:10:22.806Z,1.70
2018-03-19T11:12:51.110Z,1.80
2018-03-19T11:15:19.519Z,1.80
2018-03-19T11:17:47.083Z,1.80
2018-03-19T11:20:14.638Z,1.80
2018-03-19T11:22:42.165Z,1.90
2018-03-19T11:25:09.719Z,1.90
2018-03-19T11:27:38.031Z,2.10
2018-03-19T11:30:05.847Z,2.10
2018-03-19T11:32:33.383Z,2.10
2018-03-19T11:35:00.921Z,2.10
2018-03-19T11:37:28.475Z,2.10
2018-03-19T11:39:56.772Z,2.20
2018-03-19T11:42:24.334Z,2.20
2018-03-19T11:44:51.884Z,2.30
2018-03-19T11:47:20.184Z,2.30
2018-03-19T11:49:48.482Z,2.30
2018-03-19T11:52:16.042Z,2.30
2018-03-19T11:54:43.593Z,2.30
2018-03-19T11:57:11.142Z,2.40
2018-03-19T11:59:38.705Z,2.50
2018-03-19T12:02:06.227Z,2.50
2018-03-19T12:04:33.755Z,2.60
2018-03-19T12:07:01.314Z,2.70
2018-03-19T12:09:29.689Z,2.70
2018-03-19T12:11:57.232Z,2.60
2018-03-19T12:14:24.766Z,2.70
2018-03-19T12:16:52.397Z,2.60
2018-03-19T12:19:20.066Z,2.60
2018-03-19T12:21:48.366Z,2.70
2018-03-19T12:24:15.919Z,2.60
2018-03-19T12:26:44.215Z,2.50
2018-03-19T12:29:11.755Z,2.50
2018-03-19T12:31:40.465Z,2.60
2018-03-19T12:34:07.999Z,2.60
2018-03-19T12:36:35.526Z,2.70
2018-03-19T12:39:03.073Z,2.60
2018-03-19T12:41:30.616Z,2.60
2018-03-19T12:43:59.207Z,2.50
2018-03-19T12:46:26.749Z,2.50
2018-03-19T12:48:54.292Z,2.50
2018-03-19T12:51:21.880Z,2.50
2018-03-19T12:53:49.425Z,2.50
2018-03-19T12:56:16.994Z,2.50
2018-03-19T12:58:44.538Z,2.50
2018-03-19T13:01:12.071Z,2.60
2018-03-19T13:03:39.655Z,2.60
2018-03-19T13:06:07.199Z,2.70
2018-03-19T13:08:34.768Z,2.70
2018-03-19T13:11:02.419Z,2.80
2018-03-19T13:13:30.770Z,2.80
2018-03-19T13:15:59.083Z,2.80
2018-03-19T13:18:27.387Z,2.90
2018-03-19T13:20:55.014Z,2.90
2018-03-19T13:23:23.135Z,2.90
2018-03-19T13:25:50.673Z,2.90
2018-03-19T13:28:18.966Z,3.10
2018-03-19T13:30:47.273Z,3.10
2018-03-19T13:33:14.835Z,3.10
2018-03-19T13:35:42.392Z,3.10
2018-03-19T13:38:09.972Z,3.20
2018-03-19T13:40:37.535Z,3.20
2018-03-19T13:43:05.084Z,3.30
2018-03-19T13:45:33.435Z,3.70
2018-03-19T13:48:01.001Z,3.70
2018-03-19T13:50:28.548Z,3.80
2018-03-19T13:52:56.094Z,3.90
2018-03-19T13:55:23.631Z,4.00
2018-03-19T13:57:51.300Z,4.20
2018-03-19T14:00:18.859Z,4.30
2018-03-19T14:02:46.419Z,4.20
2018-03-19T14:05:14.748Z,4.20
2018-03-19T14:07:42.300Z,4.30
2018-03-19T14:10:09.917Z,4.30
2018-03-19T14:12:37.490Z,4.30
2018-03-19T14:15:05.822Z,4.50
2018-03-19T14:17:33.372Z,4.50
2018-03-19T14:20:00.915Z,4.50
2018-03-19T14:22:29.252Z,4.20
2018-03-19T14:24:56.811Z,4.20
2018-03-19T14:27:24.409Z,3.90
2018-03-19T14:29:51.944Z,3.70
2018-03-19T14:32:19.479Z,3.50
2018-03-19T14:34:47.100Z,3.30
2018-03-19T14:37:14.629Z,3.20
2018-03-19T14:39:42.186Z,3.00
2018-03-19T14:42:09.713Z,2.80
2018-03-19T14:44:38.037Z,2.70
2018-03-19T14:47:05.640Z,2.60
2018-03-19T14:49:33.173Z,2.70
2018-03-19T14:52:00.706Z,2.70
2018-03-19T14:54:28.397Z,2.80
2018-03-19T14:56:55.896Z,2.90
2018-03-19T14:59:23.454Z,2.80
2018-03-19T15:01:51.061Z,2.90
2018-03-19T15:04:18.596Z,2.90
2018-03-19T15:06:46.138Z,3.00
2018-03-19T15:09:13.691Z,3.20
2018-03-19T15:11:41.232Z,3.30
2018-03-19T15:14:08.791Z,3.30
2018-03-19T15:16:37.117Z,3.40
2018-03-19T15:19:04.649Z,3.30
2018-03-19T15:21:32.188Z,3.40
2018-03-19T15:23:59.757Z,3.30
2018-03-19T15:26:27.307Z,3.30
2018-03-19T15:28:54.840Z,3.30
2018-03-19T15:31:22.433Z,3.20
2018-03-19T15:33:50.058Z,3.20
2018-03-19T15:36:17.684Z,3.10
2018-03-19T15:38:45.229Z,3.10
2018-03-19T15:41:12.777Z,3.00
2018-03-19T15:43:40.313Z,2.90
2018-03-19T15:46:07.890Z,2.90
2018-03-19T15:48:35.481Z,2.90
2018-03-19T15:51:03.834Z,2.80
2018-03-19T15:53:31.378Z,2.80
2018-03-19T15:55:59.772Z,2.60
2018-03-19T15:58:27.318Z,2.60
2018-03-19T16:00:55.659Z,2.60
2018-03-19T16:03:23.205Z,2.60
2018-03-19T16:05:50.804Z,2.60
2018-03-19T16:08:18.339Z,2.50
2018-03-19T16:10:45.895Z,2.50
2018-03-19T16:13:13.606Z,2.30
2018-03-19T16:15:41.146Z,2.20
2018-03-19T16:18:08.707Z,2.10
2018-03-19T16:20:36.366Z,2.00
2018-03-19T16:23:03.907Z,1.90
2018-03-19T16:25:32.241Z,1.70
2018-03-19T16:27:59.789Z,1.70
2018-03-19T16:30:27.546Z,1.70
2018-03-19T16:32:55.083Z,1.60
2018-03-19T16:35:23.428Z,1.60
2018-03-19T16:37:50.959Z,1.60
2018-03-19T16:40:18.495Z,1.60
2018-03-19T16:42:46.821Z,1.50
2018-03-19T16:45:14.373Z,1.50
2018-03-19T16:47:41.919Z,1.50
2018-03-19T16:50:09.501Z,1.40
2018-03-19T16:52:37.040Z,1.30
2018-03-19T16:55:04.679Z,1.20
2018-03-19T16:57:32.307Z,1.20
2018-03-19T16:59:59.872Z,1.10
2018-03-19T17:02:27.435Z,1.00
2018-03-19T17:04:54.966Z,1.00
2018-03-19T17:07:22.531Z,1.00
2018-03-19T17:09:50.860Z,0.90
2018-03-19T17:12:18.417Z,0.90
2018-03-19T17:14:46.294Z,0.90
2018-03-19T17:17:13.912Z,0.90
2018-03-19T17:19:41.517Z,0.80
2018-03-19T17:22:09.064Z,0.80
2018-03-19T17:24:37.380Z,0.70
2018-03-19T17:27:04.956Z,0.70
2018-03-19T17:29:32.604Z,0.70
2018-03-19T17:32:00.150Z,0.60
2018-03-19T17:34:28.474Z,0.60
2018-03-19T17:36:56.011Z,0.60
2018-03-19T17:39:23.665Z,0.60
2018-03-19T17:41:51.203Z,0.60
2018-03-19T17:44:18.761Z,0.60
2018-03-19T17:46:46.563Z,0.50
2018-03-19T17:49:14.861Z,0.40
2018-03-19T17:51:42.461Z,0.40
2018-03-19T17:54:10.019Z,0.40
2018-03-19T17:56:37.582Z,0.30
2018-03-19T17:59:05.133Z,0.30
2018-03-19T18:01:32.672Z,0.30
2018-03-19T18:04:01.016Z,0.40
2018-03-19T18:06:28.550Z,0.30
2018-03-19T18:08:56.098Z,0.40
2018-03-19T18:11:23.648Z,0.40
2018-03-19T18:13:51.967Z,0.30
2018-03-19T18:16:19.547Z,0.30
2018-03-19T18:18:47.246Z,0.30
2018-03-19T18:21:14.798Z,0.30
2018-03-19T18:23:42.387Z,0.30
2018-03-19T18:26:09.936Z,0.30
2018-03-19T18:28:37.494Z,0.30
2018-03-19T18:31:05.848Z,0.20
2018-03-19T18:33:33.510Z,0.20
2018-03-19T18:36:01.050Z,0.30
2018-03-19T18:38:29.363Z,0.30
2018-03-19T18:40:56.932Z,0.30
2018-03-19T18:43:24.482Z,0.30
2018-03-19T18:45:52.098Z,0.30
2018-03-19T18:48:19.621Z,0.30
2018-03-19T18:50:47.210Z,0.40
2018-03-19T18:53:15.076Z,0.40
2018-03-19T18:55:42.627Z,0.30
2018-03-19T18:58:10.236Z,0.30
2018-03-19T19:00:37.807Z,0.40
2018-03-19T19:03:05.432Z,0.40
2018-03-19T19:05:33.010Z,0.30
2018-03-19T19:08:00.658Z,0.30
2018-03-19T19:10:28.261Z,0.30
2018-03-19T19:12:55.809Z,0.30
2018-03-19T19:15:23.388Z,0.30
2018-03-19T19:17:51.046Z,0.30
2018-03-19T19:20:18.591Z,0.40
2018-03-19T19:22:46.137Z,0.30
2018-03-19T19:25:14.448Z,0.30
2018-03-19T19:27:42.006Z,0.40
2018-03-19T19:30:09.564Z,0.30
2018-03-19T19:32:37.120Z,0.30
2018-03-19T19:35:05.481Z,0.20
2018-03-19T19:37:33.810Z,0.30
2018-03-19T19:40:01.523Z,0.20
2018-03-19T19:42:29.097Z,0.20
2018-03-19T19:44:56.648Z,0.30
2018-03-19T19:47:24.269Z,0.30
2018-03-19T19:49:51.811Z,0.30
2018-03-19T19:52:20.150Z,0.30
2018-03-19T19:54:48.478Z,0.30
2018-03-19T19:57:16.796Z,0.30
2018-03-19T19:59:44.410Z,0.30
2018-03-19T20:02:11.963Z,0.30
2018-03-19T20:04:39.519Z,0.30
2018-03-19T20:07:07.445Z,0.30
2018-03-19T20:09:35.006Z,0.30
2018-03-19T20:12:03.392Z,0.40
2018-03-19T20:14:30.946Z,0.40
2018-03-19T20:16:59.311Z,0.30
2018-03-19T20:19:27.239Z,0.30
2018-03-19T20:21:54.805Z,0.30
2018-03-19T20:24:22.364Z,0.30
2018-03-19T20:26:49.926Z,0.30
2018-03-19T20:29:17.559Z,0.20
2018-03-19T20:31:45.123Z,0.20
2018-03-19T20:34:13.437Z,0.20
2018-03-19T20:36:40.981Z,0.20
2018-03-19T20:39:09.307Z,0.20
2018-03-19T20:41:36.881Z,0.20
2018-03-19T20:44:04.456Z,0.20
2018-03-19T20:46:32.010Z,0.20
2018-03-19T20:48:59.650Z,0.10
2018-03-19T20:51:27.217Z,0.10
2018-03-19T20:53:54.760Z,0.10
2018-03-19T20:56:23.890Z,0.00
2018-03-19T20:58:51.424Z,0.00
2018-03-19T21:01:19.840Z,0.00
2018-03-19T21:03:47.387Z,-0.10
2018-03-19T21:06:14.981Z,-0.10
2018-03-19T21:08:42.680Z,-0.20
2018-03-19T21:11:10.247Z,-0.30
2018-03-19T21:13:37.798Z,-0.30
2018-03-19T21:16:05.396Z,-0.40
2018-03-19T21:18:32.954Z,-0.40
2018-03-19T21:21:00.539Z,-0.50
2018-03-19T21:23:28.858Z,-0.60
2018-03-19T21:25:56.492Z,-0.60
2018-03-19T21:28:24.809Z,-0.70
2018-03-19T21:30:52.364Z,-0.70
2018-03-19T21:33:19.976Z,-0.70
2018-03-19T21:35:47.509Z,-0.80
2018-03-19T21:38:15.070Z,-0.80
2018-03-19T21:40:42.625Z,-0.90
2018-03-19T21:43:10.247Z,-0.90
2018-03-19T21:45:37.909Z,-1.00
2018-03-19T21:48:05.504Z,-1.00
2018-03-19T21:50:33.809Z,-1.20
2018-03-19T21:53:01.353Z,-1.20
2018-03-19T21:55:29.006Z,-1.20
2018-03-19T21:57:56.531Z,-1.20
2018-03-19T22:00:24.067Z,-1.30
2018-03-19T22:02:51.659Z,-1.30
2018-03-19T22:05:19.214Z,-1.30
2018-03-19T22:07:46.780Z,-1.40
2018-03-19T22:10:14.344Z,-1.40
2018-03-19T22:12:41.896Z,-1.40
2018-03-19T22:15:09.423Z,-1.40
2018-03-19T22:17:36.982Z,-1.40
2018-03-19T22:20:04.513Z,-1.40
2018-03-19T22:22:32.084Z,-1.40
2018-03-19T22:24:59.708Z,-1.40
2018-03-19T22:27:28.038Z,-1.50
2018-03-19T22:29:55.584Z,-1.60
2018-03-19T22:32:23.129Z,-1.60
2018-03-19T22:34:51.886Z,-1.60
2018-03-19T22:37:19.453Z,-1.70
2018-03-19T22:39:47.008Z,-1.70
2018-03-19T22:42:14.583Z,-1.70
2018-03-19T22:44:42.117Z,-1.70
2018-03-19T22:47:09.722Z,-1.80
2018-03-19T22:49:37.386Z,-1.80
2018-03-19T22:52:05.765Z,-1.90
2018-03-19T22:54:33.306Z,-1.90
2018-03-19T22:57:00.918Z,-2.00
2018-03-19T22:59:29.631Z,-2.10
2018-03-19T23:01:57.167Z,-2.10
2018-03-19T23:04:36.629Z,-2.20
2018-03-19T23:07:04.161Z,-2.20
2018-03-19T23:09:31.710Z,-2.20
2018-03-19T23:11:59.258Z,-2.10
2018-03-19T23:14:26.805Z,-2.10
2018-03-19T23:16:54.658Z,-2.10
2018-03-19T23:19:22.959Z,-2.20
2018-03-19T23:21:50.512Z,-2.30
2018-03-19T23:24:18.055Z,-2.30
2018-03-19T23:26:46.536Z,-2.40
2018-03-19T23:29:14.195Z,-2.40
2018-03-19T23:31:41.851Z,-2.40
2018-03-19T23:34:09.394Z,-2.40
2018-03-19T23:36:36.985Z,-2.40
2018-03-19T23:39:04.532Z,-2.50
2018-03-19T23:41:32.098Z,-2.50
2018-03-19T23:43:59.642Z,-2.40
2018-03-19T23:46:27.225Z,-2.40
2018-03-19T23:48:54.766Z,-2.40
2018-03-19T23:51:22.306Z,-2.50
2018-03-19T23:53:50.633Z,-2.50
2018-03-19T23:56:18.180Z,-2.50
2018-03-19T23:58:45.729Z,-2.50
